sensor_id;sensor_type;location;lat;lon;timestamp;P1;durP1;ratioP1;P2;durP2;ratioP2
17340;SDS011;8788;49.930;8.660;2022-07-12T00:00:56;0.88;;;0.88;;
17340;SDS011;8788;49.930;8.660;2022-07-12T00:03:23;0.70;;;0.70;;
17340;SDS011;8788;49.930;8.660;2022-07-12T00:05:50;2.75;;;0.80;;
17340;SDS011;8788;49.930;8.660;2022-07-12T00:08:17;0.73;;;0.65;;
17340;SDS011;8788;49.930;8.660;2022-07-12T00:10:44;0.98;;;0.70;;
17340;SDS011;8788;49.930;8.660;2022-07-12T00:13:13;0.70;;;0.70;;
17340;SDS011;8788;49.930;8.660;2022-07-12T00:15:41;1.27;;;0.70;;
17340;SDS011;8788;49.930;8.660;2022-07-12T00:18:08;1.10;;;0.90;;
17340;SDS011;8788;49.930;8.660;2022-07-12T00:20:36;1.05;;;0.95;;
17340;SDS011;8788;49.930;8.660;2022-07-12T00:23:03;0.85;;;0.82;;
17340;SDS011;8788;49.930;8.660;2022-07-12T00:25:31;1.67;;;0.80;;
17340;SDS011;8788;49.930;8.660;2022-07-12T00:27:58;0.70;;;0.70;;
17340;SDS011;8788;49.930;8.660;2022-07-12T00:30:26;1.50;;;0.90;;
17340;SDS011;8788;49.930;8.660;2022-07-12T00:32:53;1.00;;;0.93;;
17340;SDS011;8788;49.930;8.660;2022-07-12T00:35:21;0.52;;;0.52;;
17340;SDS011;8788;49.930;8.660;2022-07-12T00:37:48;0.82;;;0.82;;
17340;SDS011;8788;49.930;8.660;2022-07-12T00:40:15;0.70;;;0.70;;
17340;SDS011;8788;49.930;8.660;2022-07-12T00:42:42;0.70;;;0.70;;
17340;SDS011;8788;49.930;8.660;2022-07-12T00:45:10;0.90;;;0.90;;
17340;SDS011;8788;49.930;8.660;2022-07-12T00:47:39;0.85;;;0.85;;
17340;SDS011;8788;49.930;8.660;2022-07-12T00:50:10;0.68;;;0.68;;
17340;SDS011;8788;49.930;8.660;2022-07-12T00:52:38;2.53;;;0.85;;
17340;SDS011;8788;49.930;8.660;2022-07-12T00:55:06;0.80;;;0.80;;
17340;SDS011;8788;49.930;8.660;2022-07-12T00:57:35;0.70;;;0.70;;
17340;SDS011;8788;49.930;8.660;2022-07-12T01:00:03;0.98;;;0.90;;
17340;SDS011;8788;49.930;8.660;2022-07-12T01:02:33;1.27;;;0.80;;
17340;SDS011;8788;49.930;8.660;2022-07-12T01:05:03;0.63;;;0.63;;
17340;SDS011;8788;49.930;8.660;2022-07-12T01:07:31;0.70;;;0.70;;
17340;SDS011;8788;49.930;8.660;2022-07-12T01:09:58;1.27;;;0.65;;
17340;SDS011;8788;49.930;8.660;2022-07-12T01:12:26;1.23;;;0.90;;
17340;SDS011;8788;49.930;8.660;2022-07-12T01:14:53;0.60;;;0.55;;
17340;SDS011;8788;49.930;8.660;2022-07-12T01:17:21;0.50;;;0.50;;
17340;SDS011;8788;49.930;8.660;2022-07-12T01:19:51;0.70;;;0.63;;
17340;SDS011;8788;49.930;8.660;2022-07-12T01:22:20;0.73;;;0.73;;
17340;SDS011;8788;49.930;8.660;2022-07-12T01:24:54;0.85;;;0.85;;
17340;SDS011;8788;49.930;8.660;2022-07-12T01:27:22;1.13;;;1.02;;
17340;SDS011;8788;49.930;8.660;2022-07-12T01:29:49;0.80;;;0.80;;
17340;SDS011;8788;49.930;8.660;2022-07-12T01:32:16;0.60;;;0.60;;
17340;SDS011;8788;49.930;8.660;2022-07-12T01:34:54;1.83;;;0.90;;
17340;SDS011;8788;49.930;8.660;2022-07-12T01:37:23;0.80;;;0.60;;
17340;SDS011;8788;49.930;8.660;2022-07-12T01:39:52;0.82;;;0.82;;
17340;SDS011;8788;49.930;8.660;2022-07-12T01:42:22;0.75;;;0.75;;
17340;SDS011;8788;49.930;8.660;2022-07-12T01:44:51;1.13;;;0.88;;
17340;SDS011;8788;49.930;8.660;2022-07-12T01:47:20;0.73;;;0.73;;
17340;SDS011;8788;49.930;8.660;2022-07-12T01:49:49;0.55;;;0.55;;
17340;SDS011;8788;49.930;8.660;2022-07-12T01:52:16;0.80;;;0.80;;
17340;SDS011;8788;49.930;8.660;2022-07-12T01:54:45;0.77;;;0.77;;
17340;SDS011;8788;49.930;8.660;2022-07-12T01:57:12;1.05;;;0.95;;
17340;SDS011;8788;49.930;8.660;2022-07-12T01:59:41;1.65;;;0.90;;
17340;SDS011;8788;49.930;8.660;2022-07-12T02:02:09;1.17;;;1.08;;
17340;SDS011;8788;49.930;8.660;2022-07-12T02:04:36;1.35;;;0.80;;
17340;SDS011;8788;49.930;8.660;2022-07-12T02:07:04;0.80;;;0.80;;
17340;SDS011;8788;49.930;8.660;2022-07-12T02:09:31;1.02;;;0.77;;
17340;SDS011;8788;49.930;8.660;2022-07-12T02:11:59;1.05;;;0.95;;
17340;SDS011;8788;49.930;8.660;2022-07-12T02:14:26;1.00;;;0.63;;
17340;SDS011;8788;49.930;8.660;2022-07-12T02:16:55;1.30;;;0.80;;
17340;SDS011;8788;49.930;8.660;2022-07-12T02:19:22;1.48;;;0.75;;
17340;SDS011;8788;49.930;8.660;2022-07-12T02:21:49;1.33;;;0.77;;
17340;SDS011;8788;49.930;8.660;2022-07-12T02:24:16;0.85;;;0.80;;
17340;SDS011;8788;49.930;8.660;2022-07-12T02:26:43;1.35;;;0.73;;
17340;SDS011;8788;49.930;8.660;2022-07-12T02:29:10;1.23;;;0.80;;
17340;SDS011;8788;49.930;8.660;2022-07-12T02:31:37;0.70;;;0.70;;
17340;SDS011;8788;49.930;8.660;2022-07-12T02:34:06;2.67;;;0.98;;
17340;SDS011;8788;49.930;8.660;2022-07-12T02:36:33;1.10;;;1.00;;
17340;SDS011;8788;49.930;8.660;2022-07-12T02:39:01;1.17;;;1.08;;
17340;SDS011;8788;49.930;8.660;2022-07-12T02:41:29;0.73;;;0.70;;
17340;SDS011;8788;49.930;8.660;2022-07-12T02:43:57;2.80;;;1.17;;
17340;SDS011;8788;49.930;8.660;2022-07-12T02:46:24;0.90;;;0.90;;
17340;SDS011;8788;49.930;8.660;2022-07-12T02:48:51;0.60;;;0.60;;
17340;SDS011;8788;49.930;8.660;2022-07-12T02:51:20;1.00;;;1.00;;
17340;SDS011;8788;49.930;8.660;2022-07-12T02:53:49;1.10;;;1.00;;
17340;SDS011;8788;49.930;8.660;2022-07-12T02:56:16;0.88;;;0.88;;
17340;SDS011;8788;49.930;8.660;2022-07-12T02:58:43;1.02;;;0.90;;
17340;SDS011;8788;49.930;8.660;2022-07-12T03:01:11;1.00;;;0.70;;
17340;SDS011;8788;49.930;8.660;2022-07-12T03:03:44;0.75;;;0.75;;
17340;SDS011;8788;49.930;8.660;2022-07-12T03:06:12;0.93;;;0.60;;
17340;SDS011;8788;49.930;8.660;2022-07-12T03:08:40;0.77;;;0.77;;
17340;SDS011;8788;49.930;8.660;2022-07-12T03:11:08;0.90;;;0.90;;
17340;SDS011;8788;49.930;8.660;2022-07-12T03:13:35;0.70;;;0.70;;
17340;SDS011;8788;49.930;8.660;2022-07-12T03:16:02;1.00;;;0.90;;
17340;SDS011;8788;49.930;8.660;2022-07-12T03:18:30;0.90;;;0.90;;
17340;SDS011;8788;49.930;8.660;2022-07-12T03:20:57;0.70;;;0.70;;
17340;SDS011;8788;49.930;8.660;2022-07-12T03:23:24;2.40;;;0.80;;
17340;SDS011;8788;49.930;8.660;2022-07-12T03:25:52;0.80;;;0.80;;
17340;SDS011;8788;49.930;8.660;2022-07-12T03:28:20;2.47;;;0.77;;
17340;SDS011;8788;49.930;8.660;2022-07-12T03:30:47;0.90;;;0.90;;
17340;SDS011;8788;49.930;8.660;2022-07-12T03:33:14;0.95;;;0.90;;
17340;SDS011;8788;49.930;8.660;2022-07-12T03:35:41;0.65;;;0.65;;
17340;SDS011;8788;49.930;8.660;2022-07-12T03:38:08;1.17;;;0.80;;
17340;SDS011;8788;49.930;8.660;2022-07-12T03:40:35;1.25;;;1.15;;
17340;SDS011;8788;49.930;8.660;2022-07-12T03:43:04;3.38;;;1.10;;
17340;SDS011;8788;49.930;8.660;2022-07-12T03:45:31;1.15;;;1.00;;
17340;SDS011;8788;49.930;8.660;2022-07-12T03:47:59;1.63;;;1.10;;
17340;SDS011;8788;49.930;8.660;2022-07-12T03:50:26;1.00;;;0.93;;
17340;SDS011;8788;49.930;8.660;2022-07-12T03:52:53;1.65;;;1.13;;
17340;SDS011;8788;49.930;8.660;2022-07-12T03:55:20;1.88;;;0.90;;
17340;SDS011;8788;49.930;8.660;2022-07-12T03:57:48;1.08;;;0.98;;
17340;SDS011;8788;49.930;8.660;2022-07-12T04:00:16;0.75;;;0.75;;
17340;SDS011;8788;49.930;8.660;2022-07-12T04:02:43;2.72;;;0.77;;
17340;SDS011;8788;49.930;8.660;2022-07-12T04:05:12;1.25;;;1.15;;
17340;SDS011;8788;49.930;8.660;2022-07-12T04:07:39;1.10;;;0.98;;
17340;SDS011;8788;49.930;8.660;2022-07-12T04:10:07;1.45;;;1.10;;
17340;SDS011;8788;49.930;8.660;2022-07-12T04:12:36;1.20;;;1.10;;
17340;SDS011;8788;49.930;8.660;2022-07-12T04:15:03;0.80;;;0.80;;
17340;SDS011;8788;49.930;8.660;2022-07-12T04:17:33;0.73;;;0.73;;
17340;SDS011;8788;49.930;8.660;2022-07-12T04:20:00;1.35;;;1.17;;
17340;SDS011;8788;49.930;8.660;2022-07-12T04:22:27;0.98;;;0.80;;
17340;SDS011;8788;49.930;8.660;2022-07-12T04:24:54;1.17;;;1.10;;
17340;SDS011;8788;49.930;8.660;2022-07-12T04:27:22;1.40;;;1.30;;
17340;SDS011;8788;49.930;8.660;2022-07-12T04:29:51;1.08;;;0.98;;
17340;SDS011;8788;49.930;8.660;2022-07-12T04:32:18;0.90;;;0.90;;
17340;SDS011;8788;49.930;8.660;2022-07-12T04:34:47;1.05;;;0.95;;
17340;SDS011;8788;49.930;8.660;2022-07-12T04:37:14;0.73;;;0.73;;
17340;SDS011;8788;49.930;8.660;2022-07-12T04:40:07;1.30;;;0.63;;
17340;SDS011;8788;49.930;8.660;2022-07-12T04:42:35;1.00;;;1.00;;
17340;SDS011;8788;49.930;8.660;2022-07-12T04:45:02;0.93;;;0.93;;
17340;SDS011;8788;49.930;8.660;2022-07-12T04:47:30;1.33;;;1.15;;
17340;SDS011;8788;49.930;8.660;2022-07-12T04:49:58;1.05;;;0.80;;
17340;SDS011;8788;49.930;8.660;2022-07-12T04:52:25;1.85;;;0.93;;
17340;SDS011;8788;49.930;8.660;2022-07-12T04:54:52;1.23;;;1.00;;
17340;SDS011;8788;49.930;8.660;2022-07-12T04:57:19;1.10;;;0.98;;
17340;SDS011;8788;49.930;8.660;2022-07-12T04:59:46;3.28;;;1.13;;
17340;SDS011;8788;49.930;8.660;2022-07-12T05:02:14;1.33;;;1.23;;
17340;SDS011;8788;49.930;8.660;2022-07-12T05:04:41;1.10;;;0.98;;
17340;SDS011;8788;49.930;8.660;2022-07-12T05:07:10;1.20;;;1.10;;
17340;SDS011;8788;49.930;8.660;2022-07-12T05:09:37;1.80;;;1.30;;
17340;SDS011;8788;49.930;8.660;2022-07-12T05:12:05;2.55;;;1.25;;
17340;SDS011;8788;49.930;8.660;2022-07-12T05:14:33;2.50;;;1.13;;
17340;SDS011;8788;49.930;8.660;2022-07-12T05:17:00;1.77;;;0.98;;
17340;SDS011;8788;49.930;8.660;2022-07-12T05:19:27;1.63;;;1.23;;
17340;SDS011;8788;49.930;8.660;2022-07-12T05:21:54;1.20;;;1.10;;
17340;SDS011;8788;49.930;8.660;2022-07-12T05:24:23;2.90;;;1.38;;
17340;SDS011;8788;49.930;8.660;2022-07-12T05:26:50;1.63;;;1.52;;
17340;SDS011;8788;49.930;8.660;2022-07-12T05:29:17;1.58;;;1.48;;
17340;SDS011;8788;49.930;8.660;2022-07-12T05:32:09;2.42;;;1.42;;
17340;SDS011;8788;49.930;8.660;2022-07-12T05:34:37;1.55;;;1.45;;
17340;SDS011;8788;49.930;8.660;2022-07-12T05:37:04;3.05;;;1.70;;
17340;SDS011;8788;49.930;8.660;2022-07-12T05:39:33;2.13;;;1.92;;
17340;SDS011;8788;49.930;8.660;2022-07-12T05:42:00;2.15;;;1.60;;
17340;SDS011;8788;49.930;8.660;2022-07-12T05:44:27;1.75;;;1.58;;
17340;SDS011;8788;49.930;8.660;2022-07-12T05:46:54;1.50;;;1.40;;
17340;SDS011;8788;49.930;8.660;2022-07-12T05:49:21;1.73;;;1.63;;
17340;SDS011;8788;49.930;8.660;2022-07-12T05:51:48;1.77;;;1.67;;
17340;SDS011;8788;49.930;8.660;2022-07-12T05:54:34;3.03;;;1.95;;
17340;SDS011;8788;49.930;8.660;2022-07-12T05:57:02;1.73;;;1.63;;
17340;SDS011;8788;49.930;8.660;2022-07-12T05:59:29;3.15;;;2.33;;
17340;SDS011;8788;49.930;8.660;2022-07-12T06:01:56;2.05;;;1.85;;
17340;SDS011;8788;49.930;8.660;2022-07-12T06:04:23;3.00;;;1.90;;
17340;SDS011;8788;49.930;8.660;2022-07-12T06:06:50;2.92;;;1.67;;
17340;SDS011;8788;49.930;8.660;2022-07-12T06:09:17;1.92;;;1.83;;
17340;SDS011;8788;49.930;8.660;2022-07-12T06:11:46;2.10;;;1.90;;
17340;SDS011;8788;49.930;8.660;2022-07-12T06:14:13;1.85;;;1.65;;
17340;SDS011;8788;49.930;8.660;2022-07-12T06:16:40;2.35;;;1.88;;
17340;SDS011;8788;49.930;8.660;2022-07-12T06:19:07;1.95;;;1.75;;
17340;SDS011;8788;49.930;8.660;2022-07-12T06:21:34;2.33;;;1.85;;
17340;SDS011;8788;49.930;8.660;2022-07-12T06:24:02;3.13;;;1.80;;
17340;SDS011;8788;49.930;8.660;2022-07-12T06:26:29;3.28;;;1.83;;
17340;SDS011;8788;49.930;8.660;2022-07-12T06:28:58;2.65;;;1.67;;
17340;SDS011;8788;49.930;8.660;2022-07-12T06:31:25;3.20;;;1.60;;
17340;SDS011;8788;49.930;8.660;2022-07-12T06:33:52;2.88;;;1.40;;
17340;SDS011;8788;49.930;8.660;2022-07-12T06:36:19;1.55;;;1.42;;
17340;SDS011;8788;49.930;8.660;2022-07-12T06:38:46;1.40;;;1.30;;
17340;SDS011;8788;49.930;8.660;2022-07-12T06:41:13;1.73;;;1.23;;
17340;SDS011;8788;49.930;8.660;2022-07-12T06:43:40;1.55;;;1.10;;
17340;SDS011;8788;49.930;8.660;2022-07-12T06:46:09;1.50;;;1.40;;
17340;SDS011;8788;49.930;8.660;2022-07-12T06:48:36;1.05;;;0.95;;
17340;SDS011;8788;49.930;8.660;2022-07-12T06:51:03;1.10;;;1.00;;
17340;SDS011;8788;49.930;8.660;2022-07-12T06:53:30;0.95;;;0.90;;
17340;SDS011;8788;49.930;8.660;2022-07-12T06:55:57;1.02;;;1.02;;
17340;SDS011;8788;49.930;8.660;2022-07-12T06:58:25;1.42;;;1.30;;
17340;SDS011;8788;49.930;8.660;2022-07-12T07:00:52;0.98;;;0.80;;
17340;SDS011;8788;49.930;8.660;2022-07-12T07:03:20;1.00;;;1.00;;
17340;SDS011;8788;49.930;8.660;2022-07-12T07:05:53;0.85;;;0.73;;
17340;SDS011;8788;49.930;8.660;2022-07-12T07:08:20;1.33;;;1.23;;
17340;SDS011;8788;49.930;8.660;2022-07-12T07:10:48;1.40;;;1.23;;
17340;SDS011;8788;49.930;8.660;2022-07-12T07:13:15;2.25;;;0.98;;
17340;SDS011;8788;49.930;8.660;2022-07-12T07:15:42;1.30;;;1.13;;
17340;SDS011;8788;49.930;8.660;2022-07-12T07:18:10;0.98;;;0.98;;
17340;SDS011;8788;49.930;8.660;2022-07-12T07:20:38;1.02;;;1.00;;
17340;SDS011;8788;49.930;8.660;2022-07-12T07:23:06;1.60;;;0.90;;
17340;SDS011;8788;49.930;8.660;2022-07-12T07:25:35;0.95;;;0.90;;
17340;SDS011;8788;49.930;8.660;2022-07-12T07:28:03;0.95;;;0.95;;
17340;SDS011;8788;49.930;8.660;2022-07-12T07:30:30;0.90;;;0.90;;
17340;SDS011;8788;49.930;8.660;2022-07-12T07:33:15;0.80;;;0.80;;
17340;SDS011;8788;49.930;8.660;2022-07-12T07:35:43;1.40;;;1.08;;
17340;SDS011;8788;49.930;8.660;2022-07-12T07:38:10;1.00;;;0.90;;
17340;SDS011;8788;49.930;8.660;2022-07-12T07:40:37;4.88;;;1.10;;
17340;SDS011;8788;49.930;8.660;2022-07-12T07:43:05;1.23;;;1.13;;
17340;SDS011;8788;49.930;8.660;2022-07-12T07:45:32;0.85;;;0.85;;
17340;SDS011;8788;49.930;8.660;2022-07-12T07:47:59;0.95;;;0.95;;
17340;SDS011;8788;49.930;8.660;2022-07-12T07:50:26;0.80;;;0.80;;
17340;SDS011;8788;49.930;8.660;2022-07-12T07:52:55;2.17;;;0.70;;
17340;SDS011;8788;49.930;8.660;2022-07-12T07:55:22;0.98;;;0.88;;
17340;SDS011;8788;49.930;8.660;2022-07-12T07:57:49;0.70;;;0.70;;
17340;SDS011;8788;49.930;8.660;2022-07-12T08:00:16;5.35;;;0.93;;
17340;SDS011;8788;49.930;8.660;2022-07-12T08:03:09;1.75;;;0.82;;
17340;SDS011;8788;49.930;8.660;2022-07-12T08:05:36;0.73;;;0.73;;
17340;SDS011;8788;49.930;8.660;2022-07-12T08:08:04;0.95;;;0.80;;
17340;SDS011;8788;49.930;8.660;2022-07-12T08:10:32;0.85;;;0.60;;
17340;SDS011;8788;49.930;8.660;2022-07-12T08:12:59;1.88;;;0.68;;
17340;SDS011;8788;49.930;8.660;2022-07-12T08:15:27;0.88;;;0.63;;
17340;SDS011;8788;49.930;8.660;2022-07-12T08:17:55;0.60;;;0.60;;
17340;SDS011;8788;49.930;8.660;2022-07-12T08:20:23;0.65;;;0.65;;
17340;SDS011;8788;49.930;8.660;2022-07-12T08:22:50;0.50;;;0.50;;
17340;SDS011;8788;49.930;8.660;2022-07-12T08:25:19;0.60;;;0.60;;
17340;SDS011;8788;49.930;8.660;2022-07-12T08:27:47;1.80;;;0.52;;
17340;SDS011;8788;49.930;8.660;2022-07-12T08:30:14;0.57;;;0.57;;
17340;SDS011;8788;49.930;8.660;2022-07-12T08:32:45;0.88;;;0.63;;
17340;SDS011;8788;49.930;8.660;2022-07-12T08:35:12;1.52;;;0.60;;
17340;SDS011;8788;49.930;8.660;2022-07-12T08:37:40;1.02;;;0.70;;
17340;SDS011;8788;49.930;8.660;2022-07-12T08:40:07;2.05;;;0.50;;
17340;SDS011;8788;49.930;8.660;2022-07-12T08:42:37;0.77;;;0.70;;
17340;SDS011;8788;49.930;8.660;2022-07-12T08:45:07;0.60;;;0.60;;
17340;SDS011;8788;49.930;8.660;2022-07-12T08:47:36;0.82;;;0.63;;
17340;SDS011;8788;49.930;8.660;2022-07-12T08:50:13;0.98;;;0.88;;
17340;SDS011;8788;49.930;8.660;2022-07-12T08:53:09;0.82;;;0.75;;
17340;SDS011;8788;49.930;8.660;2022-07-12T08:55:38;0.70;;;0.70;;
17340;SDS011;8788;49.930;8.660;2022-07-12T08:58:14;0.65;;;0.65;;
17340;SDS011;8788;49.930;8.660;2022-07-12T09:00:50;0.50;;;0.50;;
17340;SDS011;8788;49.930;8.660;2022-07-12T09:03:17;1.10;;;0.60;;
17340;SDS011;8788;49.930;8.660;2022-07-12T09:05:49;1.88;;;0.60;;
17340;SDS011;8788;49.930;8.660;2022-07-12T09:08:18;1.88;;;0.80;;
17340;SDS011;8788;49.930;8.660;2022-07-12T09:10:52;0.50;;;0.50;;
17340;SDS011;8788;49.930;8.660;2022-07-12T09:13:45;0.50;;;0.50;;
17340;SDS011;8788;49.930;8.660;2022-07-12T09:16:15;0.60;;;0.60;;
17340;SDS011;8788;49.930;8.660;2022-07-12T09:18:43;0.45;;;0.45;;
17340;SDS011;8788;49.930;8.660;2022-07-12T09:21:20;0.50;;;0.50;;
17340;SDS011;8788;49.930;8.660;2022-07-12T09:23:51;0.65;;;0.47;;
17340;SDS011;8788;49.930;8.660;2022-07-12T09:26:19;0.60;;;0.60;;
17340;SDS011;8788;49.930;8.660;2022-07-12T09:28:49;1.70;;;0.80;;
17340;SDS011;8788;49.930;8.660;2022-07-12T09:31:18;0.50;;;0.50;;
17340;SDS011;8788;49.930;8.660;2022-07-12T09:34:01;0.82;;;0.65;;
17340;SDS011;8788;49.930;8.660;2022-07-12T09:39:31;0.60;;;0.60;;
17340;SDS011;8788;49.930;8.660;2022-07-12T09:42:01;0.52;;;0.47;;
17340;SDS011;8788;49.930;8.660;2022-07-12T09:44:30;2.88;;;0.32;;
17340;SDS011;8788;49.930;8.660;2022-07-12T09:46:59;0.50;;;0.50;;
17340;SDS011;8788;49.930;8.660;2022-07-12T09:49:27;0.32;;;0.32;;
17340;SDS011;8788;49.930;8.660;2022-07-12T09:51:55;0.57;;;0.57;;
17340;SDS011;8788;49.930;8.660;2022-07-12T09:54:25;0.45;;;0.40;;
17340;SDS011;8788;49.930;8.660;2022-07-12T09:56:58;2.33;;;0.60;;
17340;SDS011;8788;49.930;8.660;2022-07-12T09:59:27;0.40;;;0.40;;
17340;SDS011;8788;49.930;8.660;2022-07-12T10:01:57;0.30;;;0.30;;
17340;SDS011;8788;49.930;8.660;2022-07-12T10:04:29;1.00;;;0.32;;
17340;SDS011;8788;49.930;8.660;2022-07-12T10:06:56;0.30;;;0.30;;
17340;SDS011;8788;49.930;8.660;2022-07-12T10:09:24;0.40;;;0.40;;
17340;SDS011;8788;49.930;8.660;2022-07-12T10:11:53;0.30;;;0.30;;
17340;SDS011;8788;49.930;8.660;2022-07-12T10:14:22;0.60;;;0.60;;
17340;SDS011;8788;49.930;8.660;2022-07-12T10:16:50;1.13;;;0.70;;
17340;SDS011;8788;49.930;8.660;2022-07-12T10:19:26;0.38;;;0.38;;
17340;SDS011;8788;49.930;8.660;2022-07-12T10:21:56;0.63;;;0.63;;
17340;SDS011;8788;49.930;8.660;2022-07-12T10:27:28;0.30;;;0.30;;
17340;SDS011;8788;49.930;8.660;2022-07-12T10:30:14;0.45;;;0.45;;
17340;SDS011;8788;49.930;8.660;2022-07-12T10:33:14;0.43;;;0.43;;
17340;SDS011;8788;49.930;8.660;2022-07-12T10:36:08;0.30;;;0.30;;
17340;SDS011;8788;49.930;8.660;2022-07-12T10:38:35;0.68;;;0.50;;
17340;SDS011;8788;49.930;8.660;2022-07-12T10:41:15;0.40;;;0.40;;
17340;SDS011;8788;49.930;8.660;2022-07-12T10:43:44;0.45;;;0.45;;
17340;SDS011;8788;49.930;8.660;2022-07-12T10:46:28;0.50;;;0.50;;
17340;SDS011;8788;49.930;8.660;2022-07-12T10:54:46;0.50;;;0.50;;
17340;SDS011;8788;49.930;8.660;2022-07-12T10:57:37;0.30;;;0.30;;
17340;SDS011;8788;49.930;8.660;2022-07-12T11:00:06;0.40;;;0.40;;
17340;SDS011;8788;49.930;8.660;2022-07-12T11:02:34;0.40;;;0.40;;
17340;SDS011;8788;49.930;8.660;2022-07-12T11:05:01;0.52;;;0.40;;
17340;SDS011;8788;49.930;8.660;2022-07-12T11:07:30;0.47;;;0.47;;
17340;SDS011;8788;49.930;8.660;2022-07-12T11:09:58;0.40;;;0.40;;
17340;SDS011;8788;49.930;8.660;2022-07-12T11:12:27;0.40;;;0.40;;
17340;SDS011;8788;49.930;8.660;2022-07-12T11:14:54;0.40;;;0.40;;
17340;SDS011;8788;49.930;8.660;2022-07-12T11:17:24;0.50;;;0.50;;
17340;SDS011;8788;49.930;8.660;2022-07-12T11:20:02;0.50;;;0.50;;
17340;SDS011;8788;49.930;8.660;2022-07-12T11:22:36;0.32;;;0.32;;
17340;SDS011;8788;49.930;8.660;2022-07-12T11:25:06;0.30;;;0.30;;
17340;SDS011;8788;49.930;8.660;2022-07-12T11:27:35;0.32;;;0.32;;
17340;SDS011;8788;49.930;8.660;2022-07-12T11:30:03;1.00;;;0.40;;
17340;SDS011;8788;49.930;8.660;2022-07-12T11:32:35;0.32;;;0.32;;
17340;SDS011;8788;49.930;8.660;2022-07-12T11:35:03;0.50;;;0.50;;
17340;SDS011;8788;49.930;8.660;2022-07-12T11:37:51;1.38;;;0.50;;
17340;SDS011;8788;49.930;8.660;2022-07-12T11:40:26;0.40;;;0.40;;
17340;SDS011;8788;49.930;8.660;2022-07-12T11:42:55;0.65;;;0.50;;
17340;SDS011;8788;49.930;8.660;2022-07-12T11:45:23;0.80;;;0.80;;
17340;SDS011;8788;49.930;8.660;2022-07-12T11:47:51;0.52;;;0.52;;
17340;SDS011;8788;49.930;8.660;2022-07-12T11:50:19;0.55;;;0.47;;
17340;SDS011;8788;49.930;8.660;2022-07-12T11:52:53;0.77;;;0.75;;
17340;SDS011;8788;49.930;8.660;2022-07-12T11:55:21;0.50;;;0.50;;
17340;SDS011;8788;49.930;8.660;2022-07-12T11:57:49;0.43;;;0.43;;
17340;SDS011;8788;49.930;8.660;2022-07-12T12:00:17;0.45;;;0.45;;
17340;SDS011;8788;49.930;8.660;2022-07-12T12:03:10;0.38;;;0.38;;
17340;SDS011;8788;49.930;8.660;2022-07-12T12:05:38;0.30;;;0.30;;
17340;SDS011;8788;49.930;8.660;2022-07-12T12:08:07;0.40;;;0.40;;
17340;SDS011;8788;49.930;8.660;2022-07-12T12:10:36;0.40;;;0.40;;
17340;SDS011;8788;49.930;8.660;2022-07-12T12:13:03;0.50;;;0.50;;
17340;SDS011;8788;49.930;8.660;2022-07-12T12:15:41;0.32;;;0.30;;
17340;SDS011;8788;49.930;8.660;2022-07-12T12:18:15;0.43;;;0.40;;
17340;SDS011;8788;49.930;8.660;2022-07-12T12:20:42;0.45;;;0.45;;
17340;SDS011;8788;49.930;8.660;2022-07-12T12:23:15;0.93;;;0.80;;
17340;SDS011;8788;49.930;8.660;2022-07-12T12:25:44;0.32;;;0.22;;
17340;SDS011;8788;49.930;8.660;2022-07-12T12:28:12;0.98;;;0.32;;
17340;SDS011;8788;49.930;8.660;2022-07-12T12:30:48;0.57;;;0.30;;
17340;SDS011;8788;49.930;8.660;2022-07-12T12:36:10;0.40;;;0.40;;
17340;SDS011;8788;49.930;8.660;2022-07-12T12:39:08;0.25;;;0.25;;
17340;SDS011;8788;49.930;8.660;2022-07-12T12:41:39;0.40;;;0.40;;
17340;SDS011;8788;49.930;8.660;2022-07-12T12:44:10;0.32;;;0.30;;
17340;SDS011;8788;49.930;8.660;2022-07-12T12:46:44;0.40;;;0.40;;
17340;SDS011;8788;49.930;8.660;2022-07-12T12:49:12;0.40;;;0.40;;
17340;SDS011;8788;49.930;8.660;2022-07-12T12:51:55;0.35;;;0.35;;
17340;SDS011;8788;49.930;8.660;2022-07-12T12:54:33;2.60;;;0.30;;
17340;SDS011;8788;49.930;8.660;2022-07-12T12:57:01;1.33;;;0.28;;
17340;SDS011;8788;49.930;8.660;2022-07-12T12:59:29;0.32;;;0.32;;
17340;SDS011;8788;49.930;8.660;2022-07-12T13:01:56;0.50;;;0.50;;
17340;SDS011;8788;49.930;8.660;2022-07-12T13:04:28;0.40;;;0.30;;
17340;SDS011;8788;49.930;8.660;2022-07-12T13:06:56;0.50;;;0.50;;
17340;SDS011;8788;49.930;8.660;2022-07-12T13:09:24;0.60;;;0.50;;
17340;SDS011;8788;49.930;8.660;2022-07-12T13:11:52;0.40;;;0.40;;
17340;SDS011;8788;49.930;8.660;2022-07-12T13:14:20;0.43;;;0.43;;
17340;SDS011;8788;49.930;8.660;2022-07-12T13:17:12;0.55;;;0.38;;
17340;SDS011;8788;49.930;8.660;2022-07-12T13:19:39;0.40;;;0.40;;
17340;SDS011;8788;49.930;8.660;2022-07-12T13:22:06;0.30;;;0.30;;
17340;SDS011;8788;49.930;8.660;2022-07-12T13:24:33;0.32;;;0.32;;
17340;SDS011;8788;49.930;8.660;2022-07-12T13:27:02;0.40;;;0.40;;
17340;SDS011;8788;49.930;8.660;2022-07-12T13:29:30;1.40;;;0.50;;
17340;SDS011;8788;49.930;8.660;2022-07-12T13:31:57;1.05;;;0.60;;
17340;SDS011;8788;49.930;8.660;2022-07-12T13:34:24;0.35;;;0.35;;
17340;SDS011;8788;49.930;8.660;2022-07-12T13:36:54;0.40;;;0.40;;
17340;SDS011;8788;49.930;8.660;2022-07-12T13:39:22;0.30;;;0.30;;
17340;SDS011;8788;49.930;8.660;2022-07-12T13:42:07;0.43;;;0.43;;
17340;SDS011;8788;49.930;8.660;2022-07-12T13:44:34;0.40;;;0.40;;
17340;SDS011;8788;49.930;8.660;2022-07-12T13:47:02;0.30;;;0.30;;
17340;SDS011;8788;49.930;8.660;2022-07-12T13:49:29;1.38;;;0.40;;
17340;SDS011;8788;49.930;8.660;2022-07-12T13:51:56;0.32;;;0.32;;
17340;SDS011;8788;49.930;8.660;2022-07-12T13:54:24;0.40;;;0.40;;
17340;SDS011;8788;49.930;8.660;2022-07-12T13:56:54;0.30;;;0.30;;
17340;SDS011;8788;49.930;8.660;2022-07-12T13:59:23;0.30;;;0.30;;
17340;SDS011;8788;49.930;8.660;2022-07-12T14:01:51;0.50;;;0.40;;
17340;SDS011;8788;49.930;8.660;2022-07-12T14:04:18;1.10;;;0.38;;
17340;SDS011;8788;49.930;8.660;2022-07-12T14:06:45;2.38;;;0.60;;
17340;SDS011;8788;49.930;8.660;2022-07-12T14:09:14;1.73;;;0.50;;
17340;SDS011;8788;49.930;8.660;2022-07-12T14:11:41;0.50;;;0.50;;
17340;SDS011;8788;49.930;8.660;2022-07-12T14:14:08;0.32;;;0.32;;
17340;SDS011;8788;49.930;8.660;2022-07-12T14:16:37;0.55;;;0.30;;
17340;SDS011;8788;49.930;8.660;2022-07-12T14:19:05;0.20;;;0.20;;
17340;SDS011;8788;49.930;8.660;2022-07-12T14:21:32;0.30;;;0.30;;
17340;SDS011;8788;49.930;8.660;2022-07-12T14:23:59;0.50;;;0.28;;
17340;SDS011;8788;49.930;8.660;2022-07-12T14:26:27;0.30;;;0.30;;
17340;SDS011;8788;49.930;8.660;2022-07-12T14:28:54;0.32;;;0.32;;
17340;SDS011;8788;49.930;8.660;2022-07-12T14:31:21;0.25;;;0.25;;
17340;SDS011;8788;49.930;8.660;2022-07-12T14:33:51;0.30;;;0.30;;
17340;SDS011;8788;49.930;8.660;2022-07-12T14:36:19;0.30;;;0.30;;
17340;SDS011;8788;49.930;8.660;2022-07-12T14:38:47;1.27;;;0.25;;
17340;SDS011;8788;49.930;8.660;2022-07-12T14:41:14;0.52;;;0.30;;
17340;SDS011;8788;49.930;8.660;2022-07-12T14:43:41;0.30;;;0.28;;
17340;SDS011;8788;49.930;8.660;2022-07-12T14:46:09;0.45;;;0.40;;
17340;SDS011;8788;49.930;8.660;2022-07-12T14:48:36;0.25;;;0.25;;
17340;SDS011;8788;49.930;8.660;2022-07-12T14:51:06;0.43;;;0.43;;
17340;SDS011;8788;49.930;8.660;2022-07-12T14:53:34;0.20;;;0.20;;
17340;SDS011;8788;49.930;8.660;2022-07-12T14:56:02;0.38;;;0.38;;
17340;SDS011;8788;49.930;8.660;2022-07-12T14:58:29;1.42;;;0.43;;
17340;SDS011;8788;49.930;8.660;2022-07-12T15:00:57;1.20;;;0.30;;
17340;SDS011;8788;49.930;8.660;2022-07-12T15:03:24;0.47;;;0.38;;
17340;SDS011;8788;49.930;8.660;2022-07-12T15:05:52;0.30;;;0.30;;
17340;SDS011;8788;49.930;8.660;2022-07-12T15:08:21;1.65;;;0.30;;
17340;SDS011;8788;49.930;8.660;2022-07-12T15:10:51;0.40;;;0.40;;
17340;SDS011;8788;49.930;8.660;2022-07-12T15:13:18;0.30;;;0.30;;
17340;SDS011;8788;49.930;8.660;2022-07-12T15:15:46;0.30;;;0.30;;
17340;SDS011;8788;49.930;8.660;2022-07-12T15:18:13;0.38;;;0.30;;
17340;SDS011;8788;49.930;8.660;2022-07-12T15:20:40;1.58;;;0.43;;
17340;SDS011;8788;49.930;8.660;2022-07-12T15:23:07;0.45;;;0.45;;
17340;SDS011;8788;49.930;8.660;2022-07-12T15:25:35;0.32;;;0.32;;
17340;SDS011;8788;49.930;8.660;2022-07-12T15:28:04;0.55;;;0.30;;